createdAt,value
2023-03-11T00:00:31.494Z,4162.4
2023-03-11T00:06:07.602Z,4165.6
2023-03-11T00:11:42.922Z,4160
2023-03-11T00:17:17.823Z,4161.5
2023-03-11T00:22:53.080Z,4160.7
2023-03-11T00:28:28.325Z,4158.9
2023-03-11T00:34:05.032Z,4159.9
2023-03-11T00:39:40.693Z,4162
2023-03-11T00:45:18.552Z,4162.4
2023-03-11T00:50:53.968Z,4159.4
2023-03-11T00:56:29.454Z,4161
2023-03-11T01:02:05.600Z,4160.2
2023-03-11T01:07:42.390Z,4165.6
2023-03-11T01:13:17.910Z,4158.9
2023-03-11T01:18:53.970Z,4162.4
2023-03-11T01:24:28.766Z,4157.5
2023-03-11T01:30:04.206Z,4157.2
2023-03-11T01:35:41.500Z,4160.9
2023-03-11T01:41:16.610Z,4155.7
2023-03-11T01:46:54.930Z,4159
2023-03-11T01:52:32.674Z,4160.7
2023-03-11T01:58:08.013Z,4159.4
2023-03-11T02:03:43.307Z,4156.2
2023-03-11T02:09:17.975Z,4158.4
2023-03-11T02:14:53.722Z,4156
2023-03-11T02:20:29.479Z,4153.7
2023-03-11T02:26:05.340Z,4155
2023-03-11T02:31:45.113Z,4155.5
2023-03-11T02:37:20.702Z,4157.5
2023-03-11T02:42:55.969Z,4154.5
2023-03-11T02:48:31.040Z,4153.3
2023-03-11T02:54:06.676Z,4155
2023-03-11T02:59:42.046Z,4154
2023-03-11T03:05:17.051Z,4151.8
2023-03-11T03:10:52.494Z,4155.5
2023-03-11T03:16:28.269Z,4152.2
2023-03-11T03:22:03.333Z,4155.2
2023-03-11T03:27:39.175Z,4149.5
2023-03-11T03:33:14.688Z,4151.8
2023-03-11T03:38:55.406Z,4150.6
2023-03-11T03:44:30.859Z,4151.8
2023-03-11T03:50:07.187Z,4152.3
2023-03-11T03:55:42.170Z,4154.5
2023-03-11T04:01:18.138Z,4150.5
2023-03-11T04:07:01.504Z,4151.2
2023-03-11T04:12:36.544Z,4147.6
2023-03-11T04:18:12.749Z,4151
2023-03-11T04:23:48.173Z,4149.8
2023-03-11T04:29:23.356Z,4151.2
2023-03-11T04:35:41.303Z,4150.1
2023-03-11T04:41:18.484Z,4149.8
2023-03-11T04:46:53.397Z,4149.3
2023-03-11T04:52:29.144Z,4152.3
2023-03-11T04:58:04.337Z,4150.1
2023-03-11T05:03:39.576Z,4150
2023-03-11T05:09:15.265Z,4150.5
2023-03-11T05:14:51.285Z,4148.8
2023-03-11T05:20:27.787Z,4150.8
2023-03-11T05:26:02.953Z,4147.5
2023-03-11T05:31:39.043Z,4149
2023-03-11T05:37:14.478Z,4147.5
2023-03-11T05:42:50.201Z,4148
2023-03-11T05:48:24.956Z,4147.8
2023-03-11T05:54:01.337Z,4147.6
2023-03-11T05:59:37.332Z,4146.3
2023-03-11T06:05:16.560Z,4146.6
2023-03-11T06:10:57.952Z,4147.1
2023-03-11T06:16:34.802Z,4144.6
2023-03-11T06:22:10.233Z,4146.5
2023-03-11T06:27:45.346Z,4146.6
2023-03-11T06:33:20.414Z,4145.8
2023-03-11T06:38:55.909Z,4146
2023-03-11T06:44:31.100Z,4145.8
2023-03-11T06:50:06.716Z,4146.8
2023-03-11T06:55:43.210Z,4144.8
2023-03-11T07:01:20.384Z,4147.1
2023-03-11T07:06:55.333Z,4142.9
2023-03-11T07:12:30.989Z,4143.8
2023-03-11T07:18:07.873Z,4143.6
2023-03-11T07:23:51.663Z,4142.8
2023-03-11T07:29:27.299Z,4141.9
2023-03-11T07:35:02.654Z,4141.9
2023-03-11T07:40:45.854Z,4141.4
2023-03-11T07:46:22.243Z,4143.3
2023-03-11T07:51:57.581Z,4141.1
2023-03-11T07:57:33.502Z,4144.6
2023-03-11T08:03:08.781Z,4143.4
2023-03-11T08:08:44.473Z,4147.5
2023-03-11T08:14:20.503Z,4142.6
2023-03-11T08:19:55.694Z,4149.6
2023-03-11T08:25:30.534Z,4148.1
2023-03-11T08:31:06.647Z,4147.8
2023-03-11T08:36:43.778Z,4150.1
2023-03-11T08:42:18.842Z,4150.8
2023-03-11T08:47:54.170Z,4152.7
2023-03-11T08:53:29.137Z,4153.5
2023-03-11T08:59:05.032Z,4154.5
2023-03-11T09:04:40.927Z,4150.5
2023-03-11T09:10:15.871Z,4156.5
2023-03-11T09:15:51.585Z,4155.5
2023-03-11T09:21:28.288Z,4155.2
2023-03-11T09:27:03.516Z,4155.3
2023-03-11T09:32:39.242Z,4156.8
2023-03-11T09:38:14.335Z,4154.7
2023-03-11T09:43:49.482Z,4158.7
2023-03-11T09:49:25.433Z,4154.8
2023-03-11T09:55:01.058Z,4159.4
2023-03-11T10:00:36.151Z,4161
2023-03-11T10:06:11.029Z,4162.9
2023-03-11T10:11:47.186Z,4155.7
2023-03-11T10:17:22.464Z,4163.7
2023-03-11T10:22:58.603Z,4173.1
2023-03-11T10:28:33.761Z,4161.9
2023-03-11T10:34:09.068Z,4160.5
2023-03-11T10:39:44.017Z,4157.9
2023-03-11T10:45:19.858Z,4163.7
2023-03-11T10:50:54.629Z,4166.1
2023-03-11T10:56:51.019Z,4163.2
2023-03-11T11:02:24.224Z,4162
2023-03-11T11:08:00.614Z,4165.2
2023-03-11T11:13:37.283Z,4161.9
2023-03-11T11:19:12.956Z,4163.4
2023-03-11T11:24:48.738Z,4183.5
2023-03-11T11:30:24.500Z,4197.5
2023-03-11T11:36:00.380Z,4174.8
2023-03-11T11:41:35.205Z,4183.3
2023-03-11T11:47:11.406Z,4184.8
2023-03-11T11:52:48.839Z,4181
2023-03-11T11:58:24.410Z,4180
2023-03-11T12:04:01.131Z,4177.8
2023-03-11T12:09:38.023Z,4177.1
2023-03-11T12:15:13.171Z,4175.9
2023-03-11T12:20:48.825Z,4181.5
2023-03-11T12:26:24.202Z,4180.3
2023-03-11T12:31:59.869Z,4191.2
2023-03-11T12:37:35.083Z,4195.7
2023-03-11T12:43:10.694Z,4191.5
2023-03-11T12:48:46.573Z,4189.7
2023-03-11T12:54:43.731Z,4189
2023-03-11T13:00:17.465Z,4192.7
2023-03-11T13:05:52.798Z,4195
2023-03-11T13:11:28.415Z,4190
2023-03-11T13:17:03.883Z,4185.7
2023-03-11T13:22:38.838Z,4184.8
2023-03-11T13:28:17.134Z,4187.5
2023-03-11T13:33:52.764Z,4186.7
2023-03-11T13:39:28.386Z,4193.2
2023-03-11T13:45:03.576Z,4203.4
2023-03-11T13:50:39.297Z,4205.6
2023-03-11T13:56:14.677Z,4197.7
2023-03-11T14:01:50.002Z,4209.1
2023-03-11T14:07:29.388Z,4216.5
2023-03-11T14:13:04.859Z,4203.4
2023-03-11T14:18:41.281Z,4205.6
2023-03-11T14:24:17.199Z,4195.2
2023-03-11T14:29:53.654Z,4198.2
2023-03-11T14:35:28.795Z,4192.5
2023-03-11T14:41:06.563Z,4194.9
2023-03-11T14:46:46.279Z,4196
2023-03-11T14:52:21.879Z,4199.4
2023-03-11T14:57:57.673Z,4199.1
2023-03-11T15:03:34.368Z,4192.7
2023-03-11T15:09:09.802Z,4190
2023-03-11T15:14:45.917Z,4193
2023-03-11T15:20:21.358Z,4196
2023-03-11T15:25:56.280Z,4196.5
2023-03-11T15:31:32.028Z,4187.3
2023-03-11T15:37:15.767Z,4192.9
2023-03-11T15:42:50.923Z,4193.9
2023-03-11T15:48:26.096Z,4190.2
2023-03-11T15:54:00.941Z,4197.9
2023-03-11T15:59:36.082Z,4194.4
2023-03-11T16:05:12.893Z,4183.5
2023-03-11T16:10:49.501Z,4187.3
2023-03-11T16:16:25.563Z,4184.7
2023-03-11T16:22:01.019Z,4183.1
2023-03-11T16:27:36.126Z,4185
2023-03-11T16:33:11.352Z,4183.1
2023-03-11T16:38:46.863Z,4182.5
2023-03-11T16:44:21.755Z,4184.1
2023-03-11T16:49:57.583Z,4180.6
2023-03-11T16:55:34.017Z,4179.3
2023-03-11T17:01:09.011Z,4176.8
2023-03-11T17:06:44.243Z,4177.5
2023-03-11T17:12:20.268Z,4179.6
2023-03-11T17:17:55.711Z,4179.3
2023-03-11T17:23:30.766Z,4177.8
2023-03-11T17:29:06.356Z,4176.3
2023-03-11T17:34:41.514Z,4181.3
2023-03-11T17:40:17.178Z,4178.3
2023-03-11T17:45:52.398Z,4174.3
2023-03-11T17:51:27.419Z,4176.1
2023-03-11T17:57:03.304Z,4177.1
2023-03-11T18:02:38.568Z,4175.4
2023-03-11T18:08:13.614Z,4177.3
2023-03-11T18:13:49.609Z,4178.1
2023-03-11T18:19:26.506Z,4176.6
2023-03-11T18:25:01.992Z,4175.1
2023-03-11T18:30:37.664Z,4175.6
2023-03-11T18:36:13.479Z,4174.1
2023-03-11T18:41:49.957Z,4174.9
2023-03-11T18:47:27.183Z,4174.1
2023-03-11T18:53:02.355Z,4173.1
2023-03-11T18:58:40.782Z,4172.9
2023-03-11T19:04:42.031Z,4172.3
2023-03-11T19:10:17.554Z,4169.6
2023-03-11T19:15:57.216Z,4173.9
2023-03-11T19:21:37.149Z,4169.2
2023-03-11T19:27:12.378Z,4171.6
2023-03-11T19:32:49.052Z,4172.3
2023-03-11T19:38:23.961Z,4171.9
2023-03-11T19:43:59.694Z,4171.6
2023-03-11T19:49:34.986Z,4168.6
2023-03-11T19:55:31.972Z,4167.6
2023-03-11T20:01:05.757Z,4170.4
2023-03-11T20:06:42.460Z,4168.7
2023-03-11T20:12:27.067Z,4169.1
2023-03-11T20:18:02.978Z,4169.4
2023-03-11T20:23:38.968Z,4167.2
2023-03-11T20:29:14.394Z,4166.4
2023-03-11T20:34:50.130Z,4165.9
2023-03-11T20:40:25.349Z,4166.6
2023-03-11T20:46:00.603Z,4165.7
2023-03-11T20:51:37.701Z,4168.4
2023-03-11T20:57:14.375Z,4166.2
2023-03-11T21:02:51.955Z,4166.1
2023-03-11T21:08:29.481Z,4167.4
2023-03-11T21:14:06.786Z,4167.2
2023-03-11T21:19:42.557Z,4167.2
2023-03-11T21:25:18.663Z,4166.6
2023-03-11T21:30:55.077Z,4165.2
2023-03-11T21:36:34.857Z,4163.2
2023-03-11T21:42:15.638Z,4166.1
2023-03-11T21:47:56.385Z,4166.7
2023-03-11T21:53:54.464Z,4163.2
2023-03-11T21:59:29.244Z,4165.9
2023-03-11T22:05:05.677Z,4166.4
2023-03-11T22:10:42.040Z,4162.5
2023-03-11T22:16:19.137Z,4163.5
2023-03-11T22:21:55.415Z,4163.4
2023-03-11T22:27:30.432Z,4161.2
2023-03-11T22:33:10.765Z,4161.7
2023-03-11T22:38:46.249Z,4162.5
2023-03-11T22:44:22.674Z,4162.4
2023-03-11T22:49:57.970Z,4162.2
2023-03-11T22:55:33.979Z,4161.4
2023-03-11T23:01:08.817Z,4161.9
2023-03-11T23:06:43.925Z,4162.9
2023-03-11T23:12:23.176Z,4159.7
2023-03-11T23:18:05.183Z,4161.5
2023-03-11T23:23:40.153Z,4160.4
2023-03-11T23:29:16.059Z,4160.2
2023-03-11T23:34:51.355Z,4161.2
2023-03-11T23:40:26.612Z,4158.5
2023-03-11T23:46:02.493Z,4161.2
2023-03-11T23:51:38.568Z,4160.9
2023-03-11T23:57:14.158Z,4156.5
